createdAt,value
2018-08-17T00:01:30.368Z,93.40
2018-08-17T00:03:58.858Z,93.60
2018-08-17T00:06:27.325Z,94.00
2018-08-17T00:08:55.790Z,94.10
2018-08-17T00:11:24.323Z,94.30
2018-08-17T00:13:52.818Z,94.10
2018-08-17T00:16:21.333Z,94.50
2018-08-17T00:18:50.581Z,94.70
2018-08-17T00:21:19.789Z,95.10
2018-08-17T00:23:48.281Z,94.90
2018-08-17T00:26:17.374Z,94.90
2018-08-17T00:28:45.861Z,94.90
2018-08-17T00:31:54.185Z,94.80
2018-08-17T00:34:22.670Z,94.60
2018-08-17T00:36:51.177Z,94.80
2018-08-17T00:39:19.721Z,94.90
2018-08-17T00:41:48.210Z,95.50
2018-08-17T00:44:17.381Z,95.60
2018-08-17T00:46:45.893Z,95.80
2018-08-17T00:54:08.101Z,95.90
2018-08-17T00:56:36.561Z,95.90
2018-08-17T00:59:05.048Z,96.40
2018-08-17T01:01:33.937Z,96.40
2018-08-17T01:04:02.397Z,96.20
2018-08-17T01:06:30.902Z,97.00
2018-08-17T01:08:59.413Z,97.10
2018-08-17T01:11:28.039Z,97.00
2018-08-17T01:13:56.632Z,97.50
2018-08-17T01:16:25.181Z,98.20
2018-08-17T01:18:54.081Z,98.50
2018-08-17T01:21:22.593Z,98.20
2018-08-17T01:23:52.360Z,98.30
2018-08-17T01:26:20.893Z,98.40
2018-08-17T01:28:49.469Z,98.90
2018-08-17T01:31:17.990Z,98.80
2018-08-17T01:33:46.473Z,98.50
2018-08-17T01:41:09.901Z,98.50
2018-08-17T01:43:38.523Z,98.60
2018-08-17T01:46:07.116Z,99.00
2018-08-17T01:48:35.590Z,99.90
2018-08-17T01:51:04.069Z,99.90
2018-08-17T01:53:33.133Z,99.90
2018-08-17T01:56:01.638Z,99.90
2018-08-17T01:58:30.787Z,99.90
2018-08-17T02:00:59.254Z,99.90
2018-08-17T02:03:27.981Z,99.90
2018-08-17T02:05:56.511Z,99.90
2018-08-17T02:08:25.034Z,99.90
2018-08-17T02:10:53.594Z,99.90
2018-08-17T02:13:22.136Z,99.90
2018-08-17T02:15:50.654Z,99.90
2018-08-17T02:18:19.165Z,99.90
2018-08-17T02:20:48.041Z,99.90
2018-08-17T02:23:17.420Z,99.90
2018-08-17T02:25:52.106Z,99.90
2018-08-17T02:28:20.577Z,99.90
2018-08-17T02:30:49.055Z,99.90
2018-08-17T02:33:17.569Z,99.90
2018-08-17T02:35:46.073Z,99.90
2018-08-17T02:43:12.103Z,99.90
2018-08-17T02:45:40.596Z,99.90
2018-08-17T02:48:09.962Z,99.90
2018-08-17T02:50:38.458Z,99.90
2018-08-17T02:53:07.434Z,99.90
2018-08-17T02:55:35.899Z,99.90
2018-08-17T02:58:04.442Z,99.90
2018-08-17T03:00:32.931Z,99.90
2018-08-17T03:03:01.411Z,99.90
2018-08-17T03:05:30.459Z,99.90
2018-08-17T03:07:58.951Z,99.90
2018-08-17T03:10:27.461Z,99.90
2018-08-17T03:12:55.950Z,99.90
2018-08-17T03:15:24.424Z,99.90
2018-08-17T03:17:52.927Z,99.90
2018-08-17T03:20:21.441Z,99.90
2018-08-17T03:22:50.808Z,99.90
2018-08-17T03:25:19.309Z,99.90
2018-08-17T03:27:48.014Z,99.90
2018-08-17T03:30:16.550Z,99.90
2018-08-17T03:32:45.014Z,99.90
2018-08-17T03:35:13.622Z,99.90
2018-08-17T03:37:42.146Z,99.90
2018-08-17T03:40:11.310Z,99.90
2018-08-17T03:42:39.816Z,99.90
2018-08-17T03:45:08.342Z,99.90
2018-08-17T03:47:36.989Z,99.90
2018-08-17T03:50:06.569Z,99.90
2018-08-17T03:52:35.090Z,99.90
2018-08-17T03:55:03.606Z,99.90
2018-08-17T03:57:32.101Z,99.90
2018-08-17T04:00:00.594Z,99.90
2018-08-17T04:02:29.305Z,99.90
2018-08-17T04:04:58.200Z,99.90
2018-08-17T04:07:26.682Z,99.90
2018-08-17T04:09:55.178Z,99.90
2018-08-17T04:12:24.417Z,99.90
2018-08-17T04:14:52.885Z,99.90
2018-08-17T04:17:21.382Z,99.90
2018-08-17T04:19:49.901Z,99.90
2018-08-17T04:22:18.734Z,99.90
2018-08-17T04:24:47.290Z,99.90
2018-08-17T04:27:17.487Z,99.90
2018-08-17T04:29:45.980Z,99.90
2018-08-17T04:37:10.389Z,99.90
2018-08-17T04:39:38.953Z,99.90
2018-08-17T04:42:07.797Z,99.90
2018-08-17T04:44:36.287Z,99.90
2018-08-17T04:47:04.778Z,99.90
2018-08-17T04:49:33.287Z,99.90
2018-08-17T04:52:01.902Z,99.90
2018-08-17T04:54:30.386Z,99.90
2018-08-17T04:56:58.873Z,99.90
2018-08-17T04:59:27.377Z,99.90
2018-08-17T05:01:55.981Z,99.90
2018-08-17T05:04:24.586Z,99.90
2018-08-17T05:06:53.089Z,99.90
2018-08-17T05:09:21.590Z,99.90
2018-08-17T05:11:50.082Z,99.90
2018-08-17T05:14:18.574Z,99.90
2018-08-17T05:16:47.153Z,99.90
2018-08-17T05:24:09.453Z,99.90
2018-08-17T05:26:38.625Z,99.90
2018-08-17T05:29:07.147Z,99.90
2018-08-17T05:31:35.713Z,99.90
2018-08-17T05:34:04.230Z,99.90
2018-08-17T05:36:33.008Z,99.90
2018-08-17T05:39:01.570Z,99.90
2018-08-17T05:41:30.060Z,99.90
2018-08-17T05:43:58.558Z,99.90
2018-08-17T05:46:27.310Z,99.90
2018-08-17T05:48:55.833Z,99.90
2018-08-17T05:51:24.378Z,99.90
2018-08-17T05:53:52.910Z,99.90
2018-08-17T05:56:21.529Z,99.90
2018-08-17T05:58:50.632Z,99.90
2018-08-17T06:01:19.777Z,99.90
2018-08-17T06:03:48.668Z,99.90
2018-08-17T06:06:17.493Z,99.90
2018-08-17T06:08:46.326Z,99.90
2018-08-17T06:16:13.290Z,99.90
2018-08-17T06:18:41.810Z,99.90
2018-08-17T06:21:10.424Z,99.90
2018-08-17T06:23:39.305Z,99.90
2018-08-17T06:26:07.836Z,99.90
2018-08-17T06:28:36.738Z,99.90
2018-08-17T06:31:05.385Z,99.00
2018-08-17T06:33:33.919Z,95.10
2018-08-17T06:36:02.849Z,91.10
2018-08-17T06:38:31.406Z,83.40
2018-08-17T06:40:59.961Z,76.70
2018-08-17T06:43:28.490Z,71.40
2018-08-17T06:45:57.015Z,68.40
2018-08-17T06:48:25.554Z,63.40
2018-08-17T06:50:54.140Z,58.50
2018-08-17T06:53:24.236Z,56.00
2018-08-17T06:55:52.722Z,55.10
2018-08-17T06:58:21.193Z,53.60
2018-08-17T07:00:49.823Z,51.00
2018-08-17T07:03:18.301Z,49.10
2018-08-17T07:05:46.825Z,45.70
2018-08-17T07:13:09.610Z,43.40
2018-08-17T07:15:38.397Z,41.10
2018-08-17T07:18:06.990Z,40.30
2018-08-17T07:20:35.561Z,38.90
2018-08-17T07:23:04.083Z,38.30
2018-08-17T07:25:32.870Z,37.70
2018-08-17T07:28:01.499Z,36.20
2018-08-17T07:30:30.470Z,37.00
2018-08-17T07:32:58.996Z,35.70
2018-08-17T07:35:27.881Z,35.60
2018-08-17T07:37:59.224Z,34.70
2018-08-17T07:40:27.717Z,34.20
2018-08-17T07:42:56.229Z,33.50
2018-08-17T07:45:25.058Z,32.80
2018-08-17T07:47:53.640Z,32.50
2018-08-17T07:50:22.558Z,32.00
2018-08-17T07:52:51.157Z,31.80
2018-08-17T07:55:19.637Z,32.00
2018-08-17T07:57:48.730Z,31.50
2018-08-17T08:00:17.519Z,31.50
2018-08-17T08:02:46.082Z,30.00
2018-08-17T08:10:12.772Z,29.70
2018-08-17T08:12:41.332Z,28.50
2018-08-17T08:15:09.848Z,28.90
2018-08-17T08:17:39.282Z,27.50
2018-08-17T08:20:19.017Z,27.80
2018-08-17T08:22:47.557Z,28.10
2018-08-17T08:25:17.451Z,28.20
2018-08-17T08:27:45.954Z,27.90
2018-08-17T08:31:54.396Z,27.40
2018-08-17T08:34:22.886Z,28.50
2018-08-17T08:36:51.370Z,27.10
2018-08-17T08:39:20.197Z,26.40
2018-08-17T08:41:48.716Z,25.30
2018-08-17T08:44:18.153Z,25.60
2018-08-17T08:46:47.274Z,25.90
2018-08-17T08:49:17.473Z,25.90
2018-08-17T08:51:46.105Z,26.00
2018-08-17T08:59:08.610Z,23.80
2018-08-17T09:01:37.157Z,24.40
2018-08-17T09:04:05.765Z,24.50
2018-08-17T09:06:34.317Z,23.90
2018-08-17T09:09:02.860Z,23.80
2018-08-17T09:11:31.314Z,23.40
2018-08-17T09:13:59.831Z,23.50
2018-08-17T09:16:28.309Z,23.30
2018-08-17T09:18:56.857Z,23.80
2018-08-17T09:21:26.519Z,23.40
2018-08-17T09:23:56.080Z,23.00
2018-08-17T09:26:24.576Z,22.20
2018-08-17T09:28:53.063Z,22.40
2018-08-17T09:31:21.645Z,22.80
2018-08-17T09:33:51.531Z,23.00
2018-08-17T09:36:20.302Z,23.30
2018-08-17T09:38:48.825Z,23.30
2018-08-17T09:41:17.420Z,23.10
2018-08-17T09:43:46.817Z,22.70
2018-08-17T09:51:12.609Z,22.30
2018-08-17T09:53:41.237Z,21.50
2018-08-17T09:56:09.963Z,21.60
2018-08-17T09:58:38.515Z,22.00
2018-08-17T10:01:12.275Z,22.70
2018-08-17T10:03:47.900Z,21.40
2018-08-17T10:06:23.103Z,22.80
2018-08-17T10:08:56.829Z,22.10
2018-08-17T10:11:25.414Z,22.50
2018-08-17T10:13:54.100Z,24.00
2018-08-17T10:16:22.630Z,25.10
2018-08-17T10:18:52.242Z,25.50
2018-08-17T10:21:20.944Z,26.30
2018-08-17T10:23:49.973Z,26.20
2018-08-17T10:26:25.133Z,27.70
2018-08-17T10:28:53.761Z,29.30
2018-08-17T10:31:22.403Z,32.00
2018-08-17T10:33:52.118Z,32.00
2018-08-17T10:36:20.974Z,31.90
2018-08-17T10:38:49.523Z,32.90
2018-08-17T10:41:18.057Z,32.50
2018-08-17T10:43:47.316Z,29.80
2018-08-17T10:46:18.224Z,28.40
2018-08-17T10:48:47.790Z,30.00
2018-08-17T10:51:17.752Z,32.50
2018-08-17T10:53:47.648Z,33.00
2018-08-17T10:56:17.899Z,29.70
2018-08-17T10:58:46.958Z,31.00
2018-08-17T11:06:09.850Z,31.80
2018-08-17T11:08:38.711Z,35.60
2018-08-17T11:11:07.907Z,35.20
2018-08-17T11:13:36.766Z,35.80
2018-08-17T11:16:05.216Z,36.90
2018-08-17T11:18:33.706Z,37.80
2018-08-17T11:21:02.218Z,37.60
2018-08-17T11:23:31.522Z,36.20
2018-08-17T11:26:00.072Z,36.80
2018-08-17T11:28:30.553Z,36.00
2018-08-17T11:30:59.443Z,38.40
2018-08-17T11:33:29.471Z,38.50
2018-08-17T11:35:59.236Z,38.20
2018-08-17T11:38:28.229Z,35.70
2018-08-17T11:40:56.876Z,36.00
2018-08-17T11:43:25.863Z,35.10
2018-08-17T11:45:55.239Z,37.30
2018-08-17T11:48:29.758Z,34.90
2018-08-17T11:50:59.561Z,37.10
2018-08-17T11:53:28.518Z,38.00
2018-08-17T11:55:57.089Z,36.90
2018-08-17T11:58:25.697Z,36.10
2018-08-17T12:00:54.594Z,37.50
2018-08-17T12:03:23.648Z,37.30
2018-08-17T12:05:52.934Z,37.20
2018-08-17T12:08:21.756Z,34.60
2018-08-17T12:10:54.625Z,35.40
2018-08-17T12:13:23.125Z,35.70
2018-08-17T12:15:55.545Z,35.30
2018-08-17T12:18:24.050Z,34.60
2018-08-17T12:20:54.355Z,35.30
2018-08-17T12:23:22.878Z,36.80
2018-08-17T12:25:55.686Z,35.90
2018-08-17T12:28:26.562Z,35.70
2018-08-17T12:30:55.275Z,35.50
2018-08-17T12:33:23.811Z,35.50
2018-08-17T12:35:53.191Z,36.60
2018-08-17T12:38:21.849Z,37.10
2018-08-17T12:40:53.465Z,38.10
2018-08-17T12:43:34.022Z,37.50
2018-08-17T12:46:02.538Z,39.00
2018-08-17T12:48:31.154Z,39.50
2018-08-17T12:51:04.777Z,38.30
2018-08-17T12:53:33.254Z,37.20
2018-08-17T12:56:01.730Z,36.20
2018-08-17T12:58:30.985Z,36.50
2018-08-17T13:00:59.469Z,37.30
2018-08-17T13:03:27.965Z,35.80
2018-08-17T13:05:56.564Z,37.10
2018-08-17T13:08:25.004Z,38.00
2018-08-17T13:10:55.455Z,37.20
2018-08-17T13:13:24.553Z,36.20
2018-08-17T13:15:58.271Z,36.40
2018-08-17T13:18:26.785Z,35.40
2018-08-17T13:20:55.243Z,34.30
2018-08-17T13:23:23.681Z,33.60
2018-08-17T13:25:52.525Z,33.60
2018-08-17T13:28:21.003Z,35.10
2018-08-17T13:30:49.479Z,37.50
2018-08-17T13:33:18.681Z,37.60
2018-08-17T13:35:47.239Z,35.80
2018-08-17T13:38:17.399Z,34.40
2018-08-17T13:40:46.314Z,34.50
2018-08-17T13:48:11.369Z,35.10
2018-08-17T13:50:39.882Z,34.90
2018-08-17T13:53:08.370Z,33.30
2018-08-17T13:55:36.859Z,35.40
2018-08-17T13:58:05.539Z,34.70
2018-08-17T14:00:34.034Z,33.60
2018-08-17T14:03:02.623Z,35.10
2018-08-17T14:05:31.193Z,35.00
2018-08-17T14:07:59.625Z,35.20
2018-08-17T14:10:28.556Z,35.40
2018-08-17T14:12:57.030Z,33.30
2018-08-17T14:15:25.506Z,34.90
2018-08-17T14:17:54.031Z,35.20
2018-08-17T14:20:22.530Z,33.10
2018-08-17T14:22:51.017Z,35.40
2018-08-17T14:25:19.607Z,32.50
2018-08-17T14:27:48.065Z,32.50
2018-08-17T14:30:18.309Z,33.50
2018-08-17T14:32:48.331Z,32.70
2018-08-17T14:35:17.517Z,33.60
2018-08-17T14:37:46.081Z,33.70
2018-08-17T14:45:10.783Z,34.90
2018-08-17T14:47:39.408Z,35.50
2018-08-17T14:50:10.687Z,34.90
2018-08-17T14:52:40.926Z,34.20
2018-08-17T14:55:09.978Z,34.00
2018-08-17T14:57:38.463Z,33.90
2018-08-17T15:00:12.015Z,33.90
2018-08-17T15:02:40.754Z,33.10
2018-08-17T15:05:10.891Z,33.60
2018-08-17T15:07:39.449Z,35.80
2018-08-17T15:10:09.176Z,34.00
2018-08-17T15:12:38.655Z,34.70
2018-08-17T15:15:08.014Z,33.60
2018-08-17T15:17:36.689Z,34.20
2018-08-17T15:20:05.725Z,35.00
2018-08-17T15:22:34.215Z,35.10
2018-08-17T15:25:02.846Z,34.70
2018-08-17T15:27:31.415Z,34.30
2018-08-17T15:30:00.217Z,35.60
2018-08-17T15:32:28.706Z,35.60
2018-08-17T15:34:57.363Z,35.50
2018-08-17T15:37:25.988Z,35.60
2018-08-17T15:39:54.592Z,34.50
2018-08-17T15:42:23.672Z,33.80
2018-08-17T15:44:52.397Z,34.30
2018-08-17T15:47:21.257Z,34.10
2018-08-17T15:50:12.202Z,35.30
2018-08-17T15:52:40.714Z,33.90
2018-08-17T15:55:09.263Z,34.40
2018-08-17T15:57:37.897Z,34.90
2018-08-17T16:00:08.905Z,34.50
2018-08-17T16:02:37.480Z,35.20
2018-08-17T16:05:06.438Z,35.30
2018-08-17T16:07:34.922Z,34.90
2018-08-17T16:10:03.488Z,35.00
2018-08-17T16:12:32.064Z,35.00
2018-08-17T16:15:00.984Z,35.20
2018-08-17T16:17:29.623Z,34.60
2018-08-17T16:19:58.644Z,34.80
2018-08-17T16:22:27.163Z,35.60
2018-08-17T16:24:55.714Z,35.40
2018-08-17T16:27:24.241Z,36.00
2018-08-17T16:29:52.821Z,35.50
2018-08-17T16:32:21.406Z,35.80
2018-08-17T16:34:50.005Z,35.50
2018-08-17T16:37:18.489Z,35.70
2018-08-17T16:39:53.299Z,37.10
2018-08-17T16:42:27.242Z,37.50
2018-08-17T16:44:56.149Z,36.80
2018-08-17T16:47:24.691Z,36.20
2018-08-17T16:49:53.178Z,37.40
2018-08-17T16:52:21.966Z,37.90
2018-08-17T16:54:50.520Z,37.00
2018-08-17T16:57:19.014Z,37.30
2018-08-17T16:59:47.637Z,36.80
2018-08-17T17:07:11.238Z,37.10
2018-08-17T17:09:40.091Z,38.30
2018-08-17T17:12:16.215Z,37.80
2018-08-17T17:14:45.450Z,37.90
2018-08-17T17:17:15.962Z,37.30
2018-08-17T17:19:44.549Z,38.00
2018-08-17T17:22:13.048Z,38.80
2018-08-17T17:24:43.570Z,39.20
2018-08-17T17:27:12.884Z,39.60
2018-08-17T17:29:41.379Z,40.20
2018-08-17T17:32:09.854Z,41.50
2018-08-17T17:34:38.414Z,42.10
2018-08-17T17:37:07.479Z,42.60
2018-08-17T17:39:35.969Z,42.90
2018-08-17T17:42:06.724Z,43.00
2018-08-17T17:44:35.210Z,43.40
2018-08-17T17:47:03.719Z,44.50
2018-08-17T17:49:32.602Z,45.20
2018-08-17T17:52:01.451Z,46.00
2018-08-17T17:54:30.029Z,46.20
2018-08-17T17:57:03.208Z,46.50
2018-08-17T17:59:31.751Z,46.90
2018-08-17T18:02:00.238Z,47.40
2018-08-17T18:04:32.228Z,46.90
2018-08-17T18:07:00.902Z,47.70
2018-08-17T18:09:29.433Z,48.30
2018-08-17T18:11:58.026Z,48.40
2018-08-17T18:14:26.804Z,48.50
2018-08-17T18:16:55.359Z,49.10
2018-08-17T18:19:24.227Z,48.90
2018-08-17T18:21:52.706Z,49.30
2018-08-17T18:24:21.200Z,49.40
2018-08-17T18:26:51.131Z,50.00
2018-08-17T18:29:20.111Z,50.70
2018-08-17T18:31:48.574Z,51.40
2018-08-17T18:34:18.749Z,51.90
2018-08-17T18:36:48.096Z,52.10
2018-08-17T18:39:17.382Z,52.60
2018-08-17T18:41:45.915Z,53.00
2018-08-17T18:49:10.366Z,53.70
2018-08-17T18:51:39.278Z,54.00
2018-08-17T18:54:07.862Z,54.60
2018-08-17T18:56:36.452Z,54.10
2018-08-17T18:59:04.984Z,54.50
2018-08-17T19:01:33.469Z,55.00
2018-08-17T19:04:01.953Z,55.30
2018-08-17T19:06:30.423Z,56.00
2018-08-17T19:08:58.897Z,56.00
2018-08-17T19:11:27.434Z,56.50
2018-08-17T19:13:56.553Z,56.90
2018-08-17T19:16:25.053Z,56.00
2018-08-17T19:18:55.415Z,55.60
2018-08-17T19:21:24.074Z,56.00
2018-08-17T19:23:52.613Z,56.40
2018-08-17T19:26:21.182Z,57.00
2018-08-17T19:28:52.676Z,57.00
2018-08-17T19:31:21.259Z,57.20
2018-08-17T19:33:49.950Z,57.60
2018-08-17T19:36:18.430Z,57.60
2018-08-17T19:38:46.939Z,57.70
2018-08-17T19:46:15.878Z,58.60
2018-08-17T19:48:44.259Z,58.90
2018-08-17T19:51:17.807Z,58.90
2018-08-17T19:53:46.910Z,59.20
2018-08-17T20:01:09.145Z,59.10
2018-08-17T20:03:37.662Z,60.00
2018-08-17T20:06:12.723Z,60.10
2018-08-17T20:08:41.209Z,60.90
2018-08-17T20:11:09.759Z,62.30
2018-08-17T20:13:38.817Z,63.50
2018-08-17T20:16:32.251Z,64.40
2018-08-17T20:19:01.597Z,65.80
2018-08-17T20:21:30.111Z,66.40
2018-08-17T20:23:58.667Z,67.30
2018-08-17T20:26:27.423Z,67.70
2018-08-17T20:28:55.839Z,67.50
2018-08-17T20:31:24.436Z,67.40
2018-08-17T20:33:53.074Z,67.80
2018-08-17T20:36:22.842Z,68.20
2018-08-17T20:38:51.410Z,68.70
2018-08-17T20:41:19.981Z,68.60
2018-08-17T20:43:49.364Z,69.20
2018-08-17T20:46:17.870Z,70.20
2018-08-17T20:48:47.554Z,71.10
2018-08-17T20:56:09.918Z,72.20
2018-08-17T20:58:38.406Z,71.40
2018-08-17T21:01:06.942Z,72.20
2018-08-17T21:03:35.453Z,73.20
2018-08-17T21:06:03.979Z,74.10
2018-08-17T21:08:32.464Z,75.00
2018-08-17T21:11:00.967Z,75.70
2018-08-17T21:13:29.442Z,76.70
2018-08-17T21:15:57.927Z,77.10
2018-08-17T21:18:26.655Z,77.80
2018-08-17T21:20:56.702Z,79.10
2018-08-17T21:23:25.186Z,79.40
2018-08-17T21:25:55.570Z,79.90
2018-08-17T21:28:24.022Z,80.80
2018-08-17T21:30:53.248Z,81.50
2018-08-17T21:33:21.765Z,82.80
2018-08-17T21:35:50.269Z,83.30
2018-08-17T21:38:18.846Z,83.70
2018-08-17T21:40:49.369Z,84.70
2018-08-17T21:43:18.166Z,84.50
2018-08-17T21:45:47.609Z,84.50
2018-08-17T21:48:21.674Z,84.50
2018-08-17T21:50:50.322Z,85.10
2018-08-17T21:53:18.882Z,85.50
2018-08-17T21:55:47.393Z,85.70
2018-08-17T21:58:18.604Z,85.80
2018-08-17T22:00:47.174Z,85.70
2018-08-17T22:03:36.025Z,86.30
2018-08-17T22:06:05.164Z,86.80
2018-08-17T22:08:33.657Z,87.70
2018-08-17T22:11:02.153Z,89.10
2018-08-17T22:13:32.993Z,89.30
2018-08-17T22:16:02.080Z,90.40
2018-08-17T22:18:31.161Z,91.00
2018-08-17T22:20:59.629Z,91.30
2018-08-17T22:23:28.442Z,91.30
2018-08-17T22:25:58.491Z,91.70
2018-08-17T22:28:26.961Z,92.00
2018-08-17T22:30:55.475Z,91.80
2018-08-17T22:33:24.034Z,91.80
2018-08-17T22:35:52.602Z,91.90
2018-08-17T22:38:21.098Z,92.00
2018-08-17T22:40:49.570Z,92.00
2018-08-17T22:43:18.095Z,92.10
2018-08-17T22:45:46.701Z,92.10
2018-08-17T22:53:09.413Z,92.00
2018-08-17T22:55:38.061Z,92.30
2018-08-17T22:58:06.558Z,92.30
2018-08-17T23:00:35.823Z,92.30
2018-08-17T23:03:04.371Z,92.40
2018-08-17T23:05:36.094Z,92.30
2018-08-17T23:08:04.638Z,92.50
2018-08-17T23:10:33.145Z,92.40
2018-08-17T23:13:01.974Z,92.50
2018-08-17T23:15:30.681Z,92.70
2018-08-17T23:18:00.462Z,92.40
2018-08-17T23:20:33.616Z,92.30
2018-08-17T23:23:02.817Z,92.50
2018-08-17T23:25:31.491Z,92.50
2018-08-17T23:28:00.061Z,92.80
2018-08-17T23:30:28.580Z,92.80
2018-08-17T23:32:57.207Z,92.80
2018-08-17T23:35:26.179Z,93.10
2018-08-17T23:37:54.662Z,93.00
2018-08-17T23:40:23.216Z,93.10
2018-08-17T23:42:51.687Z,93.40
2018-08-17T23:45:20.233Z,93.60
2018-08-17T23:47:48.706Z,93.40
2018-08-17T23:50:18.746Z,93.80
2018-08-17T23:52:47.229Z,93.60
